createdAt,value
2022-12-14T00:01:48.712Z,-6.49
2022-12-14T00:04:17.423Z,-6.43
2022-12-14T00:06:45.252Z,-6.43
2022-12-14T00:09:12.806Z,-6.42
2022-12-14T00:11:40.313Z,-6.40
2022-12-14T00:14:08.014Z,-6.30
2022-12-14T00:16:36.757Z,-6.32
2022-12-14T00:19:05.822Z,-6.32
2022-12-14T00:21:33.825Z,-6.32
2022-12-14T00:24:01.544Z,-6.38
2022-12-14T00:26:31.544Z,-6.34
2022-12-14T00:29:00.935Z,-6.35
2022-12-14T00:31:29.077Z,-6.34
2022-12-14T00:33:56.751Z,-6.29
2022-12-14T00:36:24.817Z,-6.32
2022-12-14T00:38:52.375Z,-6.37
2022-12-14T00:41:20.055Z,-6.33
2022-12-14T00:43:49.399Z,-6.30
2022-12-14T00:46:18.222Z,-6.32
2022-12-14T00:48:46.263Z,-6.32
2022-12-14T00:51:15.226Z,-6.34
2022-12-14T00:53:44.812Z,-6.35
2022-12-14T00:56:12.404Z,-6.31
2022-12-14T00:58:39.850Z,-6.26
2022-12-14T01:01:14.843Z,-6.28
2022-12-14T01:03:42.694Z,-6.29
2022-12-14T01:06:17.684Z,-6.34
2022-12-14T01:08:45.874Z,-6.29
2022-12-14T01:11:13.908Z,-6.26
2022-12-14T01:13:42.451Z,-6.27
2022-12-14T01:16:13.278Z,-6.32
2022-12-14T01:18:42.733Z,-6.34
2022-12-14T01:21:16.289Z,-6.37
2022-12-14T01:23:45.361Z,-6.39
2022-12-14T01:26:14.955Z,-6.42
2022-12-14T01:28:43.015Z,-6.35
2022-12-14T01:31:13.779Z,-6.38
2022-12-14T01:33:41.374Z,-6.29
2022-12-14T01:36:14.346Z,-6.36
2022-12-14T01:38:42.477Z,-6.34
2022-12-14T01:41:22.903Z,-6.35
2022-12-14T01:43:52.554Z,-6.39
2022-12-14T01:46:31.858Z,-6.42
2022-12-14T01:49:31.120Z,-6.46
2022-12-14T01:52:08.964Z,-6.42
2022-12-14T01:54:41.686Z,-6.37
2022-12-14T01:57:22.056Z,-6.41
2022-12-14T01:59:49.722Z,-6.37
2022-12-14T02:02:18.649Z,-6.35
2022-12-14T02:04:53.644Z,-6.26
2022-12-14T02:07:23.116Z,-6.29
2022-12-14T02:09:52.994Z,-6.30
2022-12-14T02:12:35.326Z,-6.39
2022-12-14T02:15:03.738Z,-6.41
2022-12-14T02:17:31.174Z,-6.39
2022-12-14T02:19:59.025Z,-6.42
2022-12-14T02:23:12.813Z,-6.42
2022-12-14T02:26:13.717Z,-6.40
2022-12-14T02:29:02.774Z,-6.40
2022-12-14T02:32:07.735Z,-6.35
2022-12-14T02:34:43.974Z,-6.40
2022-12-14T02:37:22.312Z,-6.43
2022-12-14T02:39:58.494Z,-6.33
2022-12-14T02:43:04.115Z,-6.38
2022-12-14T02:45:36.995Z,-6.31
2022-12-14T02:48:18.870Z,-6.35
2022-12-14T02:51:29.187Z,-6.39
2022-12-14T02:54:17.284Z,-6.35
2022-12-14T02:56:50.215Z,-6.29
2022-12-14T02:59:19.844Z,-6.32
2022-12-14T03:01:50.281Z,-6.27
2022-12-14T03:04:19.744Z,-6.26
2022-12-14T03:07:28.255Z,-6.32
2022-12-14T03:10:00.751Z,-6.20
2022-12-14T03:12:28.284Z,-6.22
2022-12-14T03:14:59.275Z,-6.11
2022-12-14T03:17:32.015Z,-6.09
2022-12-14T03:20:05.806Z,-6.03
2022-12-14T03:22:56.794Z,-6.06
2022-12-14T03:25:35.485Z,-6.04
2022-12-14T03:28:11.233Z,-5.97
2022-12-14T03:31:00.393Z,-5.86
2022-12-14T03:33:31.712Z,-5.82
2022-12-14T03:36:34.553Z,-5.85
2022-12-14T03:39:06.774Z,-5.84
2022-12-14T03:42:10.965Z,-5.96
2022-12-14T03:44:48.997Z,-6.03
2022-12-14T03:47:33.509Z,-6.09
2022-12-14T03:50:22.980Z,-6.12
2022-12-14T03:52:59.204Z,-6.37
2022-12-14T03:55:36.439Z,-6.42
2022-12-14T03:58:12.985Z,-6.32
2022-12-14T04:00:54.546Z,-6.31
2022-12-14T04:03:58.044Z,-6.20
2022-12-14T04:06:32.941Z,-6.23
2022-12-14T04:09:08.205Z,-6.22
2022-12-14T04:12:01.926Z,-6.14
2022-12-14T04:14:53.593Z,-6.15
2022-12-14T04:17:50.514Z,-6.21
2022-12-14T04:20:27.127Z,-6.12
2022-12-14T04:23:07.076Z,-6.20
2022-12-14T04:25:57.685Z,-6.08
2022-12-14T04:28:53.067Z,-6.14
2022-12-14T04:31:25.009Z,-6.08
2022-12-14T04:33:58.871Z,-6.12
2022-12-14T04:36:45.645Z,-6.14
2022-12-14T04:39:22.984Z,-6.08
2022-12-14T04:41:54.944Z,-6.20
2022-12-14T04:44:31.383Z,-6.18
2022-12-14T04:47:01.150Z,-6.11
2022-12-14T04:49:49.550Z,-6.08
2022-12-14T04:52:36.321Z,-6.04
2022-12-14T05:03:47.166Z,-6.00
2022-12-14T05:06:29.085Z,-6.03
2022-12-14T05:09:05.655Z,-5.99
2022-12-14T05:11:54.285Z,-5.99
2022-12-14T05:14:42.702Z,-5.96
2022-12-14T05:17:11.222Z,-6.03
2022-12-14T05:19:49.022Z,-5.93
2022-12-14T05:22:18.402Z,-6.00
2022-12-14T05:24:45.847Z,-5.99
2022-12-14T05:27:13.476Z,-5.96
2022-12-14T05:29:41.195Z,-5.91
2022-12-14T05:32:12.534Z,-6.02
2022-12-14T05:34:40.391Z,-6.03
2022-12-14T05:37:11.588Z,-5.97
2022-12-14T05:39:42.278Z,-6.06
2022-12-14T05:42:09.745Z,-6.07
2022-12-14T05:44:37.346Z,-6.04
2022-12-14T05:47:05.008Z,-6.14
2022-12-14T05:49:32.584Z,-6.16
2022-12-14T05:52:00.913Z,-6.18
2022-12-14T05:54:28.653Z,-6.16
2022-12-14T05:56:56.161Z,-6.10
2022-12-14T05:59:23.659Z,-6.14
2022-12-14T06:01:51.902Z,-6.09
2022-12-14T06:04:19.677Z,-6.12
2022-12-14T06:06:47.323Z,-6.11
2022-12-14T06:09:18.753Z,-6.08
2022-12-14T06:11:47.314Z,-6.11
2022-12-14T06:14:14.967Z,-6.04
2022-12-14T06:16:45.204Z,-6.04
2022-12-14T06:19:14.107Z,-6.10
2022-12-14T06:21:42.642Z,-6.03
2022-12-14T06:24:12.365Z,-6.18
2022-12-14T06:26:43.667Z,-6.09
2022-12-14T06:29:17.033Z,-6.04
2022-12-14T06:31:44.688Z,-5.98
2022-12-14T06:34:12.534Z,-5.94
2022-12-14T06:36:42.310Z,-5.94
2022-12-14T06:39:15.195Z,-5.99
2022-12-14T06:41:43.654Z,-5.93
2022-12-14T06:44:13.307Z,-5.89
2022-12-14T06:46:42.013Z,-5.83
2022-12-14T06:49:14.013Z,-5.92
2022-12-14T06:51:42.934Z,-5.86
2022-12-14T06:54:15.191Z,-5.85
2022-12-14T06:56:44.803Z,-5.81
2022-12-14T06:59:13.307Z,-5.85
2022-12-14T07:01:41.663Z,-5.81
2022-12-14T07:04:09.465Z,-5.82
2022-12-14T07:06:39.898Z,-5.76
2022-12-14T07:09:11.375Z,-5.81
2022-12-14T07:11:39.186Z,-5.79
2022-12-14T07:14:07.486Z,-5.82
2022-12-14T07:16:37.123Z,-5.80
2022-12-14T07:19:05.187Z,-5.63
2022-12-14T07:21:33.131Z,-5.62
2022-12-14T07:24:01.578Z,-5.64
2022-12-14T07:26:30.456Z,-5.68
2022-12-14T07:29:00.744Z,-5.64
2022-12-14T07:31:29.698Z,-5.65
2022-12-14T07:33:59.345Z,-5.59
2022-12-14T07:36:28.937Z,-5.58
2022-12-14T07:38:56.933Z,-5.47
2022-12-14T07:41:28.142Z,-5.36
2022-12-14T07:43:56.161Z,-5.34
2022-12-14T07:46:26.621Z,-5.37
2022-12-14T07:48:56.424Z,-5.26
2022-12-14T07:51:26.833Z,-5.33
2022-12-14T07:53:55.403Z,-5.25
2022-12-14T07:56:25.395Z,-5.16
2022-12-14T07:58:55.832Z,-5.21
2022-12-14T08:01:28.823Z,-5.14
2022-12-14T08:03:59.463Z,-5.11
2022-12-14T08:06:28.802Z,-5.10
2022-12-14T08:08:57.555Z,-5.02
2022-12-14T08:11:25.835Z,-5.05
2022-12-14T08:13:54.773Z,-4.96
2022-12-14T08:16:23.203Z,-4.85
2022-12-14T08:18:52.863Z,-4.79
2022-12-14T08:21:22.325Z,-4.88
2022-12-14T08:23:51.028Z,-4.60
2022-12-14T08:26:19.734Z,-4.64
2022-12-14T08:28:47.604Z,-4.49
2022-12-14T08:31:18.157Z,-4.53
2022-12-14T08:33:46.810Z,-4.40
2022-12-14T08:36:19.821Z,-4.29
2022-12-14T08:38:52.363Z,-4.26
2022-12-14T08:41:20.433Z,-4.31
2022-12-14T08:43:54.525Z,-4.18
2022-12-14T08:46:23.179Z,-4.11
2022-12-14T08:48:52.732Z,-4.04
2022-12-14T08:51:21.458Z,-4.00
2022-12-14T08:53:48.963Z,-3.88
2022-12-14T08:56:19.803Z,-4.01
2022-12-14T08:58:47.698Z,-3.89
2022-12-14T09:01:19.645Z,-3.72
2022-12-14T09:03:47.994Z,-3.69
2022-12-14T09:06:19.023Z,-3.81
2022-12-14T09:08:49.739Z,-3.71
2022-12-14T09:11:20.021Z,-3.91
2022-12-14T09:13:47.638Z,-3.84
2022-12-14T09:16:18.592Z,-3.78
2022-12-14T09:18:47.479Z,-3.73
2022-12-14T09:21:16.268Z,-3.73
2022-12-14T09:23:44.002Z,-3.64
2022-12-14T09:26:17.618Z,-3.57
2022-12-14T09:28:56.515Z,-3.60
2022-12-14T09:31:27.108Z,-3.57
2022-12-14T09:33:55.264Z,-3.58
2022-12-14T09:36:25.678Z,-3.55
2022-12-14T09:38:58.069Z,-3.60
2022-12-14T09:41:34.850Z,-3.46
2022-12-14T09:44:18.651Z,-3.40
2022-12-14T09:46:52.871Z,-3.42
2022-12-14T09:49:31.561Z,-3.33
2022-12-14T09:52:02.165Z,-3.53
2022-12-14T09:54:37.201Z,-3.40
2022-12-14T09:57:14.102Z,-3.26
2022-12-14T09:59:41.821Z,-3.24
2022-12-14T10:02:42.196Z,-3.37
2022-12-14T10:05:38.351Z,-3.35
2022-12-14T10:08:25.722Z,-3.38
2022-12-14T10:11:09.921Z,-3.43
2022-12-14T10:13:43.380Z,-3.39
2022-12-14T10:16:22.964Z,-3.23
2022-12-14T10:19:10.272Z,-3.15
2022-12-14T10:21:47.642Z,-3.09
2022-12-14T10:24:24.361Z,-3.37
2022-12-14T10:26:54.352Z,-3.26
2022-12-14T10:29:29.001Z,-3.25
2022-12-14T10:32:02.554Z,-3.31
2022-12-14T10:34:31.381Z,-3.44
2022-12-14T10:37:12.552Z,-3.40
2022-12-14T10:40:17.598Z,-3.26
2022-12-14T10:43:13.430Z,-3.22
2022-12-14T10:45:56.843Z,-3.22
2022-12-14T10:48:39.945Z,-3.16
2022-12-14T10:51:18.495Z,-3.05
2022-12-14T10:54:26.350Z,-3.03
2022-12-14T10:56:54.113Z,-3.09
2022-12-14T10:59:26.717Z,-3.22
2022-12-14T11:02:20.936Z,-3.05
2022-12-14T11:04:54.381Z,-3.07
2022-12-14T11:07:37.283Z,-3.05
2022-12-14T11:10:25.562Z,-2.96
2022-12-14T11:12:55.991Z,-3.29
2022-12-14T11:15:37.994Z,-3.38
2022-12-14T11:18:18.158Z,-3.52
2022-12-14T11:21:03.892Z,-3.59
2022-12-14T11:23:38.082Z,-3.61
2022-12-14T11:26:42.401Z,-3.59
2022-12-14T11:29:26.578Z,-3.59
2022-12-14T11:31:54.339Z,-3.63
2022-12-14T11:34:34.970Z,-3.31
2022-12-14T11:37:22.529Z,-3.17
2022-12-14T11:40:01.775Z,-3.44
2022-12-14T11:42:30.579Z,-3.41
2022-12-14T11:45:25.744Z,-3.72
2022-12-14T11:48:15.681Z,-3.49
2022-12-14T11:50:44.960Z,-3.37
2022-12-14T11:53:15.518Z,-3.21
2022-12-14T11:56:02.251Z,-3.28
2022-12-14T11:58:34.040Z,-3.08
2022-12-14T12:01:28.464Z,-3.11
2022-12-14T12:03:57.897Z,-3.20
2022-12-14T12:06:28.100Z,-3.12
2022-12-14T12:08:58.700Z,-3.06
2022-12-14T12:11:31.979Z,-3.17
2022-12-14T12:14:03.497Z,-3.08
2022-12-14T12:16:33.328Z,-3.02
2022-12-14T12:19:11.276Z,-3.07
2022-12-14T12:21:45.001Z,-3.13
2022-12-14T12:24:16.509Z,-3.30
2022-12-14T12:27:12.223Z,-3.59
2022-12-14T12:29:51.619Z,-3.58
2022-12-14T12:32:33.719Z,-3.51
2022-12-14T12:35:23.790Z,-3.44
2022-12-14T12:37:57.321Z,-3.22
2022-12-14T12:40:29.242Z,-3.22
2022-12-14T12:43:04.960Z,-3.24
2022-12-14T12:45:41.542Z,-3.19
2022-12-14T12:48:30.774Z,-3.09
2022-12-14T12:51:13.078Z,-3.14
2022-12-14T12:53:47.585Z,-3.27
2022-12-14T12:56:20.348Z,-3.13
2022-12-14T12:58:53.056Z,-3.16
2022-12-14T13:01:33.143Z,-3.25
2022-12-14T13:04:06.013Z,-3.41
2022-12-14T13:06:41.431Z,-3.47
2022-12-14T13:09:31.895Z,-3.53
2022-12-14T13:12:02.751Z,-3.53
2022-12-14T13:14:41.479Z,-3.58
2022-12-14T13:17:24.609Z,-3.52
2022-12-14T13:19:55.725Z,-3.47
2022-12-14T13:22:29.079Z,-3.58
2022-12-14T13:25:00.181Z,-3.49
2022-12-14T13:27:41.008Z,-3.38
2022-12-14T13:30:23.630Z,-3.41
2022-12-14T13:33:20.591Z,-3.19
2022-12-14T13:36:25.549Z,-3.13
2022-12-14T13:39:27.104Z,-3.02
2022-12-14T13:42:18.783Z,-3.11
2022-12-14T13:44:59.435Z,-3.10
2022-12-14T13:47:37.759Z,-3.35
2022-12-14T13:53:01.275Z,-3.37
2022-12-14T13:55:38.120Z,-3.42
2022-12-14T13:58:22.467Z,-3.39
2022-12-14T14:01:35.955Z,-3.53
2022-12-14T14:04:15.608Z,-3.40
2022-12-14T14:06:48.896Z,-3.45
2022-12-14T14:09:34.878Z,-3.57
2022-12-14T14:12:08.938Z,-3.63
2022-12-14T14:14:45.562Z,-3.58
2022-12-14T14:17:30.560Z,-3.56
2022-12-14T14:19:59.338Z,-3.63
2022-12-14T14:22:29.051Z,-3.61
2022-12-14T14:25:01.900Z,-3.67
2022-12-14T14:27:42.133Z,-3.71
2022-12-14T14:30:29.117Z,-3.73
2022-12-14T14:33:19.977Z,-3.73
2022-12-14T14:35:44.639Z,-3.72
2022-12-14T14:38:30.784Z,-3.77
2022-12-14T14:41:18.137Z,-3.74
2022-12-14T14:44:15.062Z,-3.76
2022-12-14T14:46:47.519Z,-3.77
2022-12-14T14:49:41.595Z,-3.78
2022-12-14T14:52:27.955Z,-3.73
2022-12-14T14:55:27.881Z,-3.80
2022-12-14T14:57:59.065Z,-3.83
2022-12-14T15:00:28.194Z,-3.78
2022-12-14T15:02:57.486Z,-3.84
2022-12-14T15:05:44.205Z,-3.86
2022-12-14T15:08:22.899Z,-3.80
2022-12-14T15:10:50.802Z,-3.80
2022-12-14T15:13:28.800Z,-3.76
2022-12-14T15:15:56.859Z,-3.87
2022-12-14T15:18:25.979Z,-3.87
2022-12-14T15:21:08.561Z,-3.80
2022-12-14T15:23:39.130Z,-3.76
2022-12-14T15:26:17.098Z,-3.76
2022-12-14T15:28:54.266Z,-3.77
2022-12-14T15:31:33.984Z,-3.79
2022-12-14T15:34:03.188Z,-3.82
2022-12-14T15:36:42.464Z,-3.84
2022-12-14T15:39:45.927Z,-3.86
2022-12-14T15:42:17.004Z,-3.86
2022-12-14T15:44:52.750Z,-3.89
2022-12-14T15:47:29.189Z,-3.95
2022-12-14T15:50:39.477Z,-4.00
2022-12-14T15:53:32.467Z,-3.93
2022-12-14T15:56:09.935Z,-3.87
2022-12-14T15:58:41.025Z,-3.99
2022-12-14T16:01:30.632Z,-3.98
2022-12-14T16:04:05.340Z,-4.02
2022-12-14T16:06:41.366Z,-4.06
2022-12-14T16:09:23.133Z,-4.08
2022-12-14T16:11:56.036Z,-4.03
2022-12-14T16:14:54.424Z,-3.99
2022-12-14T16:17:32.291Z,-3.97
2022-12-14T16:20:24.191Z,-3.97
2022-12-14T16:23:05.389Z,-3.99
2022-12-14T16:25:37.252Z,-3.99
2022-12-14T16:28:41.076Z,-4.01
2022-12-14T16:31:22.502Z,-4.01
2022-12-14T16:34:14.148Z,-3.98
2022-12-14T16:36:48.206Z,-3.95
2022-12-14T16:39:27.046Z,-3.96
2022-12-14T16:42:00.767Z,-3.96
2022-12-14T16:44:31.623Z,-3.94
2022-12-14T16:47:04.814Z,-3.95
2022-12-14T16:49:41.286Z,-3.94
2022-12-14T16:52:27.080Z,-3.92
2022-12-14T16:55:14.374Z,-3.94
2022-12-14T16:58:02.513Z,-3.95
2022-12-14T17:00:33.585Z,-4.00
2022-12-14T17:03:04.568Z,-4.00
2022-12-14T17:05:35.720Z,-4.02
2022-12-14T17:08:04.006Z,-4.05
2022-12-14T17:10:32.857Z,-4.05
2022-12-14T17:13:02.496Z,-4.12
2022-12-14T17:15:33.327Z,-4.05
2022-12-14T17:18:04.013Z,-4.07
2022-12-14T17:20:36.761Z,-4.11
2022-12-14T17:23:07.511Z,-4.12
2022-12-14T17:25:35.792Z,-4.15
2022-12-14T17:28:03.897Z,-4.17
2022-12-14T17:30:31.778Z,-4.20
2022-12-14T17:32:59.373Z,-4.21
2022-12-14T17:35:31.566Z,-4.20
2022-12-14T17:37:59.680Z,-4.20
2022-12-14T17:40:27.911Z,-4.23
2022-12-14T17:42:58.408Z,-4.20
2022-12-14T17:45:28.869Z,-4.19
2022-12-14T17:47:56.946Z,-4.24
2022-12-14T17:50:27.869Z,-4.25
2022-12-14T17:52:55.507Z,-4.30
2022-12-14T17:55:28.875Z,-4.32
2022-12-14T17:57:58.079Z,-4.30
2022-12-14T18:00:46.926Z,-4.32
2022-12-14T18:03:16.327Z,-4.32
2022-12-14T18:05:48.876Z,-4.29
2022-12-14T18:08:17.989Z,-4.27
2022-12-14T18:10:46.982Z,-4.23
2022-12-14T18:13:14.831Z,-4.25
2022-12-14T18:15:49.490Z,-4.24
2022-12-14T18:18:22.985Z,-4.28
2022-12-14T18:20:53.134Z,-4.29
2022-12-14T18:23:22.471Z,-4.32
2022-12-14T18:25:52.752Z,-4.36
2022-12-14T18:28:20.866Z,-4.36
2022-12-14T18:30:52.989Z,-4.39
2022-12-14T18:33:22.847Z,-4.43
2022-12-14T18:35:51.525Z,-4.43
2022-12-14T18:38:19.935Z,-4.43
2022-12-14T18:40:50.176Z,-4.46
2022-12-14T18:43:26.617Z,-4.46
2022-12-14T18:45:55.749Z,-4.49
2022-12-14T18:48:24.222Z,-4.49
2022-12-14T18:50:54.185Z,-4.47
2022-12-14T18:53:23.904Z,-4.48
2022-12-14T18:55:51.972Z,-4.49
2022-12-14T18:58:25.214Z,-4.48
2022-12-14T19:00:55.346Z,-4.47
2022-12-14T19:03:24.086Z,-4.49
2022-12-14T19:05:51.826Z,-4.50
2022-12-14T19:08:19.375Z,-4.51
2022-12-14T19:10:48.194Z,-4.51
2022-12-14T19:13:25.382Z,-4.53
2022-12-14T19:15:54.657Z,-4.57
2022-12-14T19:18:22.185Z,-4.59
2022-12-14T19:20:50.019Z,-4.59
2022-12-14T19:23:19.115Z,-4.62
2022-12-14T19:25:47.389Z,-4.62
2022-12-14T19:28:32.918Z,-4.64
2022-12-14T19:31:01.848Z,-4.63
2022-12-14T19:33:30.178Z,-4.63
2022-12-14T19:35:58.034Z,-4.65
2022-12-14T19:38:25.497Z,-4.66
2022-12-14T19:41:02.925Z,-4.70
2022-12-14T19:43:30.902Z,-4.76
2022-12-14T19:45:58.665Z,-4.77
2022-12-14T19:48:26.456Z,-4.81
2022-12-14T19:50:54.044Z,-4.80
2022-12-14T19:53:23.865Z,-4.82
2022-12-14T19:55:52.830Z,-4.83
2022-12-14T19:58:22.166Z,-4.82
2022-12-14T20:00:50.973Z,-4.80
2022-12-14T20:03:19.110Z,-4.78
2022-12-14T20:05:55.348Z,-4.73
2022-12-14T20:08:23.595Z,-4.76
2022-12-14T20:10:54.835Z,-4.74
2022-12-14T20:13:24.415Z,-4.72
2022-12-14T20:16:00.432Z,-4.70
2022-12-14T20:18:29.603Z,-4.68
2022-12-14T20:21:05.880Z,-4.69
2022-12-14T20:23:37.715Z,-4.65
2022-12-14T20:26:08.483Z,-4.69
2022-12-14T20:28:36.234Z,-4.69
2022-12-14T20:31:08.927Z,-4.72
2022-12-14T20:33:38.376Z,-4.69
2022-12-14T20:36:06.774Z,-4.68
2022-12-14T20:38:34.299Z,-4.65
2022-12-14T20:41:07.251Z,-4.67
2022-12-14T20:43:39.775Z,-4.69
2022-12-14T20:46:22.743Z,-4.73
2022-12-14T20:48:50.376Z,-4.77
2022-12-14T20:51:17.798Z,-4.75
2022-12-14T20:53:45.468Z,-4.70
2022-12-14T20:56:16.884Z,-4.67
2022-12-14T20:58:51.162Z,-4.68
2022-12-14T21:01:20.302Z,-4.69
2022-12-14T21:03:49.264Z,-4.68
2022-12-14T21:06:20.540Z,-4.67
2022-12-14T21:09:09.670Z,-4.69
2022-12-14T21:11:57.301Z,-4.74
2022-12-14T21:14:27.602Z,-4.83
2022-12-14T21:16:55.458Z,-4.89
2022-12-14T21:19:23.993Z,-4.98
2022-12-14T21:21:54.045Z,-5.05
2022-12-14T21:25:01.017Z,-5.11
2022-12-14T21:27:17.546Z,-5.21
2022-12-14T21:29:45.552Z,-5.32
2022-12-14T21:32:14.607Z,-5.37
2022-12-14T21:34:42.963Z,-5.44
2022-12-14T21:37:11.263Z,-5.50
2022-12-14T21:39:39.164Z,-5.59
2022-12-14T21:42:20.631Z,-5.64
2022-12-14T21:44:50.573Z,-5.70
2022-12-14T21:47:24.051Z,-5.75
2022-12-14T21:49:52.113Z,-5.81
2022-12-14T21:52:26.685Z,-5.87
2022-12-14T21:54:54.268Z,-5.91
2022-12-14T21:57:42.662Z,-5.93
2022-12-14T22:00:11.032Z,-5.95
2022-12-14T22:02:42.298Z,-5.96
2022-12-14T22:05:10.738Z,-6.03
2022-12-14T22:07:38.155Z,-6.04
2022-12-14T22:10:06.102Z,-6.07
2022-12-14T22:12:33.583Z,-6.12
2022-12-14T22:15:01.720Z,-6.15
2022-12-14T22:17:29.351Z,-6.17
2022-12-14T22:19:56.990Z,-6.21
2022-12-14T22:22:24.518Z,-6.23
2022-12-14T22:24:52.024Z,-6.26
2022-12-14T22:27:20.165Z,-6.30
2022-12-14T22:29:47.761Z,-6.33
2022-12-14T22:32:15.708Z,-6.34
2022-12-14T22:34:43.421Z,-6.37
2022-12-14T22:37:15.019Z,-6.41
2022-12-14T22:39:42.918Z,-6.44
2022-12-14T22:42:10.778Z,-6.50
2022-12-14T22:44:39.093Z,-6.60
2022-12-14T22:47:06.712Z,-6.67
2022-12-14T22:49:34.272Z,-6.79
2022-12-14T22:52:01.771Z,-6.85
2022-12-14T22:54:30.128Z,-6.90
2022-12-14T22:57:02.627Z,-7.00
2022-12-14T22:59:37.663Z,-7.06
2022-12-14T23:02:05.479Z,-7.11
2022-12-14T23:04:33.722Z,-7.04
2022-12-14T23:07:01.208Z,-7.05
2022-12-14T23:09:47.426Z,-7.06
2022-12-14T23:12:33.413Z,-7.08
2022-12-14T23:15:19.883Z,-7.10
2022-12-14T23:18:06.169Z,-7.10
2022-12-14T23:20:52.512Z,-7.11
2022-12-14T23:23:38.618Z,-7.11
2022-12-14T23:26:24.992Z,-7.10
2022-12-14T23:29:11.003Z,-7.09
2022-12-14T23:31:57.401Z,-7.09
2022-12-14T23:34:43.592Z,-7.08
2022-12-14T23:37:29.920Z,-7.08
2022-12-14T23:40:16.260Z,-7.07
2022-12-14T23:43:02.449Z,-7.10
2022-12-14T23:45:49.244Z,-7.12
2022-12-14T23:48:35.328Z,-7.12
2022-12-14T23:51:21.603Z,-7.14
2022-12-14T23:54:07.662Z,-7.17
2022-12-14T23:56:53.866Z,-7.19
2022-12-14T23:59:40.158Z,-7.17
